sensor_id;sensor_type;location;lat;lon;timestamp;P1;durP1;ratioP1;P2;durP2;ratioP2
62071;SDS011;48031;48.542;13.232;2024-02-15T00:02:57;6.18;;;3.63;;
62071;SDS011;48031;48.542;13.232;2024-02-15T00:06:59;9.50;;;3.33;;
62071;SDS011;48031;48.542;13.232;2024-02-15T00:11:01;7.13;;;3.90;;
62071;SDS011;48031;48.542;13.232;2024-02-15T00:15:04;5.65;;;3.75;;
62071;SDS011;48031;48.542;13.232;2024-02-15T00:19:06;9.55;;;4.57;;
62071;SDS011;48031;48.542;13.232;2024-02-15T00:23:09;6.75;;;3.72;;
62071;SDS011;48031;48.542;13.232;2024-02-15T00:27:10;6.57;;;3.92;;
62071;SDS011;48031;48.542;13.232;2024-02-15T00:31:13;5.40;;;3.40;;
62071;SDS011;48031;48.542;13.232;2024-02-15T00:35:14;5.53;;;3.13;;
62071;SDS011;48031;48.542;13.232;2024-02-15T00:39:17;10.88;;;3.60;;
62071;SDS011;48031;48.542;13.232;2024-02-15T00:43:20;5.28;;;3.60;;
62071;SDS011;48031;48.542;13.232;2024-02-15T00:47:22;8.82;;;3.50;;
62071;SDS011;48031;48.542;13.232;2024-02-15T00:51:23;5.25;;;3.22;;
62071;SDS011;48031;48.542;13.232;2024-02-15T00:55:25;7.78;;;2.80;;
62071;SDS011;48031;48.542;13.232;2024-02-15T00:59:27;5.55;;;2.90;;
62071;SDS011;48031;48.542;13.232;2024-02-15T01:03:29;4.60;;;3.00;;
62071;SDS011;48031;48.542;13.232;2024-02-15T01:07:32;5.03;;;3.50;;
62071;SDS011;48031;48.542;13.232;2024-02-15T01:11:35;8.23;;;3.97;;
62071;SDS011;48031;48.542;13.232;2024-02-15T01:15:39;5.45;;;3.67;;
62071;SDS011;48031;48.542;13.232;2024-02-15T01:19:42;6.80;;;4.40;;
62071;SDS011;48031;48.542;13.232;2024-02-15T01:23:44;5.43;;;3.97;;
62071;SDS011;48031;48.542;13.232;2024-02-15T01:27:48;9.48;;;4.97;;
62071;SDS011;48031;48.542;13.232;2024-02-15T01:31:50;7.68;;;4.45;;
62071;SDS011;48031;48.542;13.232;2024-02-15T01:35:51;6.47;;;3.53;;
62071;SDS011;48031;48.542;13.232;2024-02-15T01:39:53;4.55;;;3.30;;
62071;SDS011;48031;48.542;13.232;2024-02-15T01:43:55;5.88;;;3.50;;
62071;SDS011;48031;48.542;13.232;2024-02-15T01:47:58;4.18;;;3.25;;
62071;SDS011;48031;48.542;13.232;2024-02-15T01:52:00;6.38;;;3.20;;
62071;SDS011;48031;48.542;13.232;2024-02-15T01:56:02;6.40;;;4.45;;
62071;SDS011;48031;48.542;13.232;2024-02-15T02:00:07;5.28;;;3.58;;
62071;SDS011;48031;48.542;13.232;2024-02-15T02:04:21;3.40;;;2.60;;
62071;SDS011;48031;48.542;13.232;2024-02-15T02:08:22;6.20;;;4.22;;
62071;SDS011;48031;48.542;13.232;2024-02-15T02:12:24;3.03;;;2.42;;
62071;SDS011;48031;48.542;13.232;2024-02-15T02:16:29;5.72;;;3.35;;
62071;SDS011;48031;48.542;13.232;2024-02-15T02:20:33;4.43;;;3.00;;
62071;SDS011;48031;48.542;13.232;2024-02-15T02:24:44;5.75;;;3.25;;
62071;SDS011;48031;48.542;13.232;2024-02-15T02:28:48;6.68;;;3.70;;
62071;SDS011;48031;48.542;13.232;2024-02-15T02:32:50;5.88;;;4.00;;
62071;SDS011;48031;48.542;13.232;2024-02-15T02:36:52;9.10;;;3.60;;
62071;SDS011;48031;48.542;13.232;2024-02-15T02:40:54;12.93;;;3.97;;
62071;SDS011;48031;48.542;13.232;2024-02-15T02:44:56;4.88;;;3.20;;
62071;SDS011;48031;48.542;13.232;2024-02-15T02:48:58;5.55;;;3.70;;
62071;SDS011;48031;48.542;13.232;2024-02-15T02:52:59;6.47;;;4.07;;
62071;SDS011;48031;48.542;13.232;2024-02-15T02:57:01;4.22;;;2.90;;
62071;SDS011;48031;48.542;13.232;2024-02-15T03:01:03;8.45;;;3.83;;
62071;SDS011;48031;48.542;13.232;2024-02-15T03:05:06;5.47;;;4.25;;
62071;SDS011;48031;48.542;13.232;2024-02-15T03:09:10;6.35;;;4.30;;
62071;SDS011;48031;48.542;13.232;2024-02-15T03:13:12;6.65;;;3.97;;
62071;SDS011;48031;48.542;13.232;2024-02-15T03:17:16;6.07;;;3.75;;
62071;SDS011;48031;48.542;13.232;2024-02-15T03:21:18;5.70;;;3.80;;
62071;SDS011;48031;48.542;13.232;2024-02-15T03:25:22;8.80;;;5.50;;
62071;SDS011;48031;48.542;13.232;2024-02-15T03:29:27;3.88;;;3.22;;
62071;SDS011;48031;48.542;13.232;2024-02-15T03:33:28;8.60;;;3.58;;
62071;SDS011;48031;48.542;13.232;2024-02-15T03:37:35;4.70;;;3.38;;
62071;SDS011;48031;48.542;13.232;2024-02-15T03:41:42;2.72;;;2.40;;
62071;SDS011;48031;48.542;13.232;2024-02-15T03:45:43;5.03;;;3.45;;
62071;SDS011;48031;48.542;13.232;2024-02-15T03:49:46;6.43;;;3.85;;
62071;SDS011;48031;48.542;13.232;2024-02-15T03:53:48;6.25;;;3.03;;
62071;SDS011;48031;48.542;13.232;2024-02-15T03:57:50;3.60;;;2.42;;
62071;SDS011;48031;48.542;13.232;2024-02-15T04:01:52;7.90;;;3.30;;
62071;SDS011;48031;48.542;13.232;2024-02-15T04:05:55;8.85;;;3.65;;
62071;SDS011;48031;48.542;13.232;2024-02-15T04:09:57;5.05;;;3.50;;
62071;SDS011;48031;48.542;13.232;2024-02-15T04:14:00;4.43;;;2.83;;
62071;SDS011;48031;48.542;13.232;2024-02-15T04:18:02;4.45;;;3.05;;
62071;SDS011;48031;48.542;13.232;2024-02-15T04:22:04;4.10;;;3.13;;
62071;SDS011;48031;48.542;13.232;2024-02-15T04:26:08;9.30;;;3.42;;
62071;SDS011;48031;48.542;13.232;2024-02-15T04:30:11;13.68;;;3.47;;
62071;SDS011;48031;48.542;13.232;2024-02-15T04:34:13;5.30;;;3.42;;
62071;SDS011;48031;48.542;13.232;2024-02-15T04:38:16;4.88;;;2.83;;
62071;SDS011;48031;48.542;13.232;2024-02-15T04:42:18;5.35;;;3.67;;
62071;SDS011;48031;48.542;13.232;2024-02-15T04:46:20;4.40;;;3.50;;
62071;SDS011;48031;48.542;13.232;2024-02-15T04:50:24;5.00;;;3.63;;
62071;SDS011;48031;48.542;13.232;2024-02-15T04:54:27;6.85;;;4.88;;
62071;SDS011;48031;48.542;13.232;2024-02-15T04:58:31;6.63;;;4.45;;
62071;SDS011;48031;48.542;13.232;2024-02-15T05:02:34;6.90;;;3.42;;
62071;SDS011;48031;48.542;13.232;2024-02-15T05:06:43;7.38;;;5.40;;
62071;SDS011;48031;48.542;13.232;2024-02-15T05:10:46;5.93;;;4.50;;
62071;SDS011;48031;48.542;13.232;2024-02-15T05:14:49;5.90;;;4.13;;
62071;SDS011;48031;48.542;13.232;2024-02-15T05:18:52;5.72;;;3.90;;
62071;SDS011;48031;48.542;13.232;2024-02-15T05:22:55;6.82;;;4.72;;
62071;SDS011;48031;48.542;13.232;2024-02-15T05:26:58;5.13;;;3.80;;
62071;SDS011;48031;48.542;13.232;2024-02-15T05:31:14;6.93;;;5.00;;
62071;SDS011;48031;48.542;13.232;2024-02-15T05:35:21;6.60;;;4.97;;
62071;SDS011;48031;48.542;13.232;2024-02-15T05:39:24;8.77;;;5.00;;
62071;SDS011;48031;48.542;13.232;2024-02-15T05:43:27;8.30;;;5.07;;
62071;SDS011;48031;48.542;13.232;2024-02-15T05:47:29;8.35;;;5.10;;
62071;SDS011;48031;48.542;13.232;2024-02-15T05:51:31;7.15;;;4.70;;
62071;SDS011;48031;48.542;13.232;2024-02-15T05:55:33;7.78;;;4.68;;
62071;SDS011;48031;48.542;13.232;2024-02-15T05:59:37;8.18;;;4.78;;
62071;SDS011;48031;48.542;13.232;2024-02-15T06:03:39;9.68;;;5.32;;
62071;SDS011;48031;48.542;13.232;2024-02-15T06:07:44;8.30;;;5.05;;
62071;SDS011;48031;48.542;13.232;2024-02-15T06:11:46;8.52;;;5.03;;
62071;SDS011;48031;48.542;13.232;2024-02-15T06:15:49;7.50;;;5.00;;
62071;SDS011;48031;48.542;13.232;2024-02-15T06:19:56;8.27;;;5.40;;
62071;SDS011;48031;48.542;13.232;2024-02-15T06:23:58;7.60;;;5.03;;
62071;SDS011;48031;48.542;13.232;2024-02-15T06:28:01;7.45;;;4.95;;
62071;SDS011;48031;48.542;13.232;2024-02-15T06:32:15;8.38;;;5.18;;
62071;SDS011;48031;48.542;13.232;2024-02-15T06:41:09;6.00;;;4.18;;
62071;SDS011;48031;48.542;13.232;2024-02-15T06:45:11;5.47;;;4.00;;
62071;SDS011;48031;48.542;13.232;2024-02-15T06:49:14;6.90;;;4.00;;
62071;SDS011;48031;48.542;13.232;2024-02-15T06:53:16;7.57;;;4.45;;
62071;SDS011;48031;48.542;13.232;2024-02-15T06:57:21;5.65;;;3.95;;
62071;SDS011;48031;48.542;13.232;2024-02-15T07:01:23;5.10;;;3.72;;
62071;SDS011;48031;48.542;13.232;2024-02-15T07:05:27;4.05;;;3.30;;
62071;SDS011;48031;48.542;13.232;2024-02-15T07:09:29;5.82;;;3.92;;
62071;SDS011;48031;48.542;13.232;2024-02-15T07:13:31;9.63;;;4.63;;
62071;SDS011;48031;48.542;13.232;2024-02-15T07:17:33;9.45;;;5.20;;
62071;SDS011;48031;48.542;13.232;2024-02-15T07:21:35;10.77;;;4.95;;
62071;SDS011;48031;48.542;13.232;2024-02-15T07:25:37;15.23;;;8.40;;
62071;SDS011;48031;48.542;13.232;2024-02-15T07:29:40;13.52;;;6.72;;
62071;SDS011;48031;48.542;13.232;2024-02-15T07:33:42;16.58;;;8.75;;
62071;SDS011;48031;48.542;13.232;2024-02-15T07:37:54;13.45;;;4.93;;
62071;SDS011;48031;48.542;13.232;2024-02-15T07:41:57;15.00;;;6.80;;
62071;SDS011;48031;48.542;13.232;2024-02-15T07:46:03;12.55;;;5.80;;
62071;SDS011;48031;48.542;13.232;2024-02-15T07:50:05;8.48;;;4.47;;
62071;SDS011;48031;48.542;13.232;2024-02-15T07:54:11;5.85;;;3.78;;
62071;SDS011;48031;48.542;13.232;2024-02-15T07:58:16;5.80;;;4.35;;
62071;SDS011;48031;48.542;13.232;2024-02-15T08:02:19;6.32;;;4.10;;
62071;SDS011;48031;48.542;13.232;2024-02-15T08:06:23;6.00;;;4.13;;
62071;SDS011;48031;48.542;13.232;2024-02-15T08:10:30;10.05;;;5.25;;
62071;SDS011;48031;48.542;13.232;2024-02-15T08:14:32;5.63;;;3.72;;
62071;SDS011;48031;48.542;13.232;2024-02-15T08:18:34;5.43;;;3.60;;
62071;SDS011;48031;48.542;13.232;2024-02-15T08:22:37;5.68;;;3.53;;
62071;SDS011;48031;48.542;13.232;2024-02-15T08:26:42;8.25;;;4.90;;
62071;SDS011;48031;48.542;13.232;2024-02-15T08:30:44;5.80;;;4.18;;
62071;SDS011;48031;48.542;13.232;2024-02-15T08:34:46;9.32;;;4.68;;
62071;SDS011;48031;48.542;13.232;2024-02-15T08:38:50;9.80;;;4.57;;
62071;SDS011;48031;48.542;13.232;2024-02-15T08:42:52;6.25;;;4.20;;
62071;SDS011;48031;48.542;13.232;2024-02-15T08:46:54;7.65;;;3.80;;
62071;SDS011;48031;48.542;13.232;2024-02-15T08:50:57;5.53;;;3.55;;
62071;SDS011;48031;48.542;13.232;2024-02-15T08:54:59;15.23;;;4.40;;
62071;SDS011;48031;48.542;13.232;2024-02-15T08:59:02;7.47;;;4.38;;
62071;SDS011;48031;48.542;13.232;2024-02-15T09:03:05;6.57;;;3.72;;
62071;SDS011;48031;48.542;13.232;2024-02-15T09:07:09;4.85;;;3.33;;
62071;SDS011;48031;48.542;13.232;2024-02-15T09:11:11;4.78;;;3.08;;
62071;SDS011;48031;48.542;13.232;2024-02-15T09:15:14;4.53;;;2.85;;
62071;SDS011;48031;48.542;13.232;2024-02-15T09:19:17;4.28;;;3.30;;
62071;SDS011;48031;48.542;13.232;2024-02-15T09:23:23;6.47;;;2.72;;
62071;SDS011;48031;48.542;13.232;2024-02-15T09:27:25;5.90;;;2.88;;
62071;SDS011;48031;48.542;13.232;2024-02-15T09:31:27;10.20;;;2.90;;
62071;SDS011;48031;48.542;13.232;2024-02-15T09:35:30;6.25;;;2.95;;
62071;SDS011;48031;48.542;13.232;2024-02-15T09:39:31;14.38;;;3.10;;
62071;SDS011;48031;48.542;13.232;2024-02-15T09:43:34;8.48;;;2.50;;
62071;SDS011;48031;48.542;13.232;2024-02-15T09:47:37;10.98;;;2.53;;
62071;SDS011;48031;48.542;13.232;2024-02-15T09:51:39;3.97;;;2.40;;
62071;SDS011;48031;48.542;13.232;2024-02-15T09:55:41;3.25;;;2.78;;
62071;SDS011;48031;48.542;13.232;2024-02-15T09:59:44;3.95;;;2.92;;
62071;SDS011;48031;48.542;13.232;2024-02-15T10:03:46;7.57;;;2.90;;
62071;SDS011;48031;48.542;13.232;2024-02-15T10:07:50;10.18;;;2.70;;
62071;SDS011;48031;48.542;13.232;2024-02-15T10:11:53;5.68;;;3.03;;
62071;SDS011;48031;48.542;13.232;2024-02-15T10:15:56;11.13;;;2.70;;
62071;SDS011;48031;48.542;13.232;2024-02-15T10:20:04;2.58;;;2.38;;
62071;SDS011;48031;48.542;13.232;2024-02-15T10:24:07;6.45;;;2.60;;
62071;SDS011;48031;48.542;13.232;2024-02-15T10:28:11;9.18;;;2.78;;
62071;SDS011;48031;48.542;13.232;2024-02-15T10:32:13;5.00;;;2.30;;
62071;SDS011;48031;48.542;13.232;2024-02-15T10:36:15;5.47;;;2.58;;
62071;SDS011;48031;48.542;13.232;2024-02-15T10:40:18;6.10;;;2.42;;
62071;SDS011;48031;48.542;13.232;2024-02-15T10:44:22;3.00;;;2.50;;
62071;SDS011;48031;48.542;13.232;2024-02-15T10:48:24;5.75;;;2.53;;
62071;SDS011;48031;48.542;13.232;2024-02-15T10:52:27;5.00;;;2.78;;
62071;SDS011;48031;48.542;13.232;2024-02-15T10:56:36;3.85;;;2.70;;
62071;SDS011;48031;48.542;13.232;2024-02-15T11:00:39;10.30;;;3.25;;
62071;SDS011;48031;48.542;13.232;2024-02-15T11:04:41;4.10;;;2.58;;
62071;SDS011;48031;48.542;13.232;2024-02-15T11:08:45;8.05;;;2.90;;
62071;SDS011;48031;48.542;13.232;2024-02-15T11:12:47;6.82;;;2.80;;
62071;SDS011;48031;48.542;13.232;2024-02-15T11:17:04;2.53;;;2.15;;
62071;SDS011;48031;48.542;13.232;2024-02-15T11:21:11;3.00;;;2.30;;
62071;SDS011;48031;48.542;13.232;2024-02-15T11:25:13;6.95;;;2.80;;
62071;SDS011;48031;48.542;13.232;2024-02-15T11:29:48;4.35;;;2.08;;
62071;SDS011;48031;48.542;13.232;2024-02-15T11:33:54;12.32;;;2.80;;
62071;SDS011;48031;48.542;13.232;2024-02-15T11:37:57;4.95;;;2.10;;
62071;SDS011;48031;48.542;13.232;2024-02-15T11:42:25;4.90;;;2.00;;
62071;SDS011;48031;48.542;13.232;2024-02-15T11:46:27;8.70;;;2.03;;
62071;SDS011;48031;48.542;13.232;2024-02-15T11:50:34;10.20;;;2.65;;
62071;SDS011;48031;48.542;13.232;2024-02-15T11:54:39;4.80;;;1.65;;
62071;SDS011;48031;48.542;13.232;2024-02-15T11:58:41;3.58;;;1.45;;
62071;SDS011;48031;48.542;13.232;2024-02-15T12:02:53;4.97;;;2.10;;
62071;SDS011;48031;48.542;13.232;2024-02-15T12:07:14;1.90;;;1.65;;
62071;SDS011;48031;48.542;13.232;2024-02-15T12:11:35;7.20;;;1.58;;
62071;SDS011;48031;48.542;13.232;2024-02-15T12:15:58;12.52;;;1.88;;
62071;SDS011;48031;48.542;13.232;2024-02-15T12:20:18;7.88;;;1.55;;
62071;SDS011;48031;48.542;13.232;2024-02-15T12:24:27;8.30;;;1.83;;
62071;SDS011;48031;48.542;13.232;2024-02-15T12:28:30;2.35;;;1.60;;
62071;SDS011;48031;48.542;13.232;2024-02-15T12:32:32;3.25;;;1.23;;
62071;SDS011;48031;48.542;13.232;2024-02-15T12:36:34;3.30;;;1.70;;
62071;SDS011;48031;48.542;13.232;2024-02-15T12:40:39;7.47;;;1.70;;
62071;SDS011;48031;48.542;13.232;2024-02-15T12:44:46;5.07;;;1.48;;
62071;SDS011;48031;48.542;13.232;2024-02-15T12:48:49;5.65;;;1.60;;
62071;SDS011;48031;48.542;13.232;2024-02-15T12:52:52;8.13;;;1.45;;
62071;SDS011;48031;48.542;13.232;2024-02-15T12:57:07;9.07;;;1.55;;
62071;SDS011;48031;48.542;13.232;2024-02-15T13:01:10;6.55;;;1.25;;
62071;SDS011;48031;48.542;13.232;2024-02-15T13:05:13;2.95;;;1.20;;
62071;SDS011;48031;48.542;13.232;2024-02-15T13:09:15;3.53;;;1.00;;
62071;SDS011;48031;48.542;13.232;2024-02-15T13:13:17;6.80;;;1.20;;
62071;SDS011;48031;48.542;13.232;2024-02-15T13:17:20;6.90;;;1.02;;
62071;SDS011;48031;48.542;13.232;2024-02-15T13:21:21;7.22;;;1.20;;
62071;SDS011;48031;48.542;13.232;2024-02-15T13:25:26;4.80;;;0.93;;
62071;SDS011;48031;48.542;13.232;2024-02-15T13:29:27;3.47;;;0.80;;
62071;SDS011;48031;48.542;13.232;2024-02-15T13:33:29;5.10;;;0.77;;
62071;SDS011;48031;48.542;13.232;2024-02-15T13:37:33;2.58;;;0.77;;
62071;SDS011;48031;48.542;13.232;2024-02-15T13:41:36;8.15;;;1.10;;
62071;SDS011;48031;48.542;13.232;2024-02-15T13:45:40;3.67;;;0.95;;
62071;SDS011;48031;48.542;13.232;2024-02-15T13:49:43;8.97;;;1.83;;
62071;SDS011;48031;48.542;13.232;2024-02-15T13:53:45;7.60;;;1.10;;
62071;SDS011;48031;48.542;13.232;2024-02-15T13:57:49;5.78;;;1.00;;
62071;SDS011;48031;48.542;13.232;2024-02-15T14:01:50;3.42;;;1.00;;
62071;SDS011;48031;48.542;13.232;2024-02-15T14:05:53;3.92;;;1.13;;
62071;SDS011;48031;48.542;13.232;2024-02-15T14:09:55;1.30;;;1.10;;
62071;SDS011;48031;48.542;13.232;2024-02-15T14:14:03;3.42;;;1.15;;
62071;SDS011;48031;48.542;13.232;2024-02-15T14:18:07;3.80;;;1.20;;
62071;SDS011;48031;48.542;13.232;2024-02-15T14:22:09;4.20;;;1.10;;
62071;SDS011;48031;48.542;13.232;2024-02-15T14:26:11;7.78;;;1.00;;
62071;SDS011;48031;48.542;13.232;2024-02-15T14:30:13;3.40;;;1.30;;
62071;SDS011;48031;48.542;13.232;2024-02-15T14:34:33;4.90;;;1.10;;
62071;SDS011;48031;48.542;13.232;2024-02-15T14:38:37;7.22;;;1.80;;
62071;SDS011;48031;48.542;13.232;2024-02-15T14:42:40;1.67;;;1.10;;
62071;SDS011;48031;48.542;13.232;2024-02-15T14:46:57;2.15;;;0.98;;
62071;SDS011;48031;48.542;13.232;2024-02-15T14:50:59;1.63;;;1.00;;
62071;SDS011;48031;48.542;13.232;2024-02-15T14:55:02;10.38;;;1.15;;
62071;SDS011;48031;48.542;13.232;2024-02-15T14:59:08;4.10;;;1.03;;
62071;SDS011;48031;48.542;13.232;2024-02-15T15:03:10;3.53;;;1.00;;
62071;SDS011;48031;48.542;13.232;2024-02-15T15:07:15;5.45;;;1.00;;
62071;SDS011;48031;48.542;13.232;2024-02-15T15:11:36;1.50;;;1.05;;
62071;SDS011;48031;48.542;13.232;2024-02-15T15:15:56;0.90;;;0.70;;
62071;SDS011;48031;48.542;13.232;2024-02-15T15:19:58;1.08;;;0.70;;
62071;SDS011;48031;48.542;13.232;2024-02-15T15:24:00;5.40;;;1.20;;
62071;SDS011;48031;48.542;13.232;2024-02-15T15:28:03;1.10;;;0.90;;
62071;SDS011;48031;48.542;13.232;2024-02-15T15:32:05;3.05;;;0.82;;
62071;SDS011;48031;48.542;13.232;2024-02-15T15:36:10;2.25;;;1.02;;
62071;SDS011;48031;48.542;13.232;2024-02-15T15:40:13;1.10;;;1.00;;
62071;SDS011;48031;48.542;13.232;2024-02-15T15:44:14;2.63;;;1.02;;
62071;SDS011;48031;48.542;13.232;2024-02-15T15:48:16;1.27;;;1.00;;
62071;SDS011;48031;48.542;13.232;2024-02-15T15:52:19;1.48;;;1.15;;
62071;SDS011;48031;48.542;13.232;2024-02-15T15:56:22;1.27;;;1.10;;
62071;SDS011;48031;48.542;13.232;2024-02-15T16:00:23;1.30;;;1.13;;
62071;SDS011;48031;48.542;13.232;2024-02-15T16:04:25;1.38;;;1.15;;
62071;SDS011;48031;48.542;13.232;2024-02-15T16:08:27;0.77;;;0.77;;
62071;SDS011;48031;48.542;13.232;2024-02-15T16:12:29;1.95;;;1.08;;
62071;SDS011;48031;48.542;13.232;2024-02-15T16:16:33;1.17;;;1.08;;
62071;SDS011;48031;48.542;13.232;2024-02-15T16:20:36;1.60;;;1.20;;
62071;SDS011;48031;48.542;13.232;2024-02-15T16:24:37;1.20;;;1.10;;
62071;SDS011;48031;48.542;13.232;2024-02-15T16:28:40;2.22;;;1.25;;
62071;SDS011;48031;48.542;13.232;2024-02-15T16:32:45;1.90;;;1.48;;
62071;SDS011;48031;48.542;13.232;2024-02-15T16:36:46;1.65;;;1.00;;
62071;SDS011;48031;48.542;13.232;2024-02-15T16:40:52;2.47;;;1.40;;
62071;SDS011;48031;48.542;13.232;2024-02-15T16:44:54;2.25;;;1.27;;
62071;SDS011;48031;48.542;13.232;2024-02-15T16:48:58;1.55;;;1.38;;
62071;SDS011;48031;48.542;13.232;2024-02-15T16:53:00;2.38;;;1.55;;
62071;SDS011;48031;48.542;13.232;2024-02-15T16:57:03;2.60;;;1.70;;
62071;SDS011;48031;48.542;13.232;2024-02-15T17:01:15;1.70;;;1.40;;
62071;SDS011;48031;48.542;13.232;2024-02-15T17:05:18;2.53;;;1.42;;
62071;SDS011;48031;48.542;13.232;2024-02-15T17:09:20;2.22;;;1.80;;
62071;SDS011;48031;48.542;13.232;2024-02-15T17:13:22;3.35;;;1.88;;
62071;SDS011;48031;48.542;13.232;2024-02-15T17:17:24;1.70;;;1.60;;
62071;SDS011;48031;48.542;13.232;2024-02-15T17:21:26;2.17;;;1.90;;
62071;SDS011;48031;48.542;13.232;2024-02-15T17:25:30;2.40;;;1.90;;
62071;SDS011;48031;48.542;13.232;2024-02-15T17:29:32;2.42;;;1.95;;
62071;SDS011;48031;48.542;13.232;2024-02-15T17:33:37;2.15;;;1.88;;
62071;SDS011;48031;48.542;13.232;2024-02-15T17:37:39;3.78;;;2.30;;
62071;SDS011;48031;48.542;13.232;2024-02-15T17:41:41;1.77;;;1.45;;
62071;SDS011;48031;48.542;13.232;2024-02-15T17:45:43;3.22;;;2.45;;
62071;SDS011;48031;48.542;13.232;2024-02-15T17:49:45;3.30;;;1.92;;
62071;SDS011;48031;48.542;13.232;2024-02-15T17:53:48;3.00;;;2.30;;
62071;SDS011;48031;48.542;13.232;2024-02-15T17:57:50;2.00;;;1.77;;
62071;SDS011;48031;48.542;13.232;2024-02-15T18:01:52;3.03;;;2.33;;
62071;SDS011;48031;48.542;13.232;2024-02-15T18:05:54;3.65;;;2.80;;
62071;SDS011;48031;48.542;13.232;2024-02-15T18:09:56;3.20;;;2.70;;
62071;SDS011;48031;48.542;13.232;2024-02-15T18:14:02;6.53;;;3.40;;
62071;SDS011;48031;48.542;13.232;2024-02-15T18:18:03;4.65;;;3.03;;
62071;SDS011;48031;48.542;13.232;2024-02-15T18:22:05;3.33;;;2.90;;
62071;SDS011;48031;48.542;13.232;2024-02-15T18:26:07;3.50;;;2.88;;
62071;SDS011;48031;48.542;13.232;2024-02-15T18:30:09;2.55;;;2.03;;
62071;SDS011;48031;48.542;13.232;2024-02-15T18:34:12;1.77;;;1.65;;
62071;SDS011;48031;48.542;13.232;2024-02-15T18:38:14;3.80;;;3.10;;
62071;SDS011;48031;48.542;13.232;2024-02-15T18:42:17;9.38;;;2.78;;
62071;SDS011;48031;48.542;13.232;2024-02-15T18:46:23;4.60;;;2.75;;
62071;SDS011;48031;48.542;13.232;2024-02-15T18:50:25;5.40;;;3.72;;
62071;SDS011;48031;48.542;13.232;2024-02-15T18:54:27;7.15;;;3.30;;
62071;SDS011;48031;48.542;13.232;2024-02-15T18:58:29;3.72;;;2.53;;
62071;SDS011;48031;48.542;13.232;2024-02-15T19:02:30;3.47;;;2.75;;
62071;SDS011;48031;48.542;13.232;2024-02-15T19:06:32;7.72;;;2.97;;
62071;SDS011;48031;48.542;13.232;2024-02-15T19:10:41;2.92;;;2.35;;
62071;SDS011;48031;48.542;13.232;2024-02-15T19:14:43;4.82;;;3.28;;
62071;SDS011;48031;48.542;13.232;2024-02-15T19:18:45;4.00;;;2.67;;
62071;SDS011;48031;48.542;13.232;2024-02-15T19:22:47;5.45;;;3.65;;
62071;SDS011;48031;48.542;13.232;2024-02-15T19:26:49;4.30;;;3.35;;
62071;SDS011;48031;48.542;13.232;2024-02-15T19:30:51;4.50;;;3.42;;
62071;SDS011;48031;48.542;13.232;2024-02-15T19:34:53;4.55;;;3.50;;
62071;SDS011;48031;48.542;13.232;2024-02-15T19:38:55;4.35;;;3.38;;
62071;SDS011;48031;48.542;13.232;2024-02-15T19:42:57;4.70;;;3.33;;
62071;SDS011;48031;48.542;13.232;2024-02-15T19:47:01;2.72;;;1.92;;
62071;SDS011;48031;48.542;13.232;2024-02-15T19:51:05;6.75;;;3.03;;
62071;SDS011;48031;48.542;13.232;2024-02-15T19:55:07;10.63;;;4.75;;
62071;SDS011;48031;48.542;13.232;2024-02-15T19:59:09;5.55;;;3.50;;
62071;SDS011;48031;48.542;13.232;2024-02-15T20:03:11;3.42;;;2.33;;
62071;SDS011;48031;48.542;13.232;2024-02-15T20:07:12;3.88;;;2.70;;
62071;SDS011;48031;48.542;13.232;2024-02-15T20:11:15;3.20;;;2.28;;
62071;SDS011;48031;48.542;13.232;2024-02-15T20:15:16;5.05;;;3.40;;
62071;SDS011;48031;48.542;13.232;2024-02-15T20:19:18;4.40;;;3.33;;
62071;SDS011;48031;48.542;13.232;2024-02-15T20:23:20;2.92;;;1.80;;
62071;SDS011;48031;48.542;13.232;2024-02-15T20:27:21;6.53;;;3.17;;
62071;SDS011;48031;48.542;13.232;2024-02-15T20:31:24;5.65;;;3.45;;
62071;SDS011;48031;48.542;13.232;2024-02-15T20:35:26;3.50;;;2.45;;
62071;SDS011;48031;48.542;13.232;2024-02-15T20:39:28;3.75;;;2.17;;
62071;SDS011;48031;48.542;13.232;2024-02-15T20:43:32;2.75;;;2.15;;
62071;SDS011;48031;48.542;13.232;2024-02-15T20:47:34;3.08;;;2.03;;
62071;SDS011;48031;48.542;13.232;2024-02-15T20:51:37;4.43;;;2.10;;
62071;SDS011;48031;48.542;13.232;2024-02-15T20:55:39;3.55;;;2.60;;
62071;SDS011;48031;48.542;13.232;2024-02-15T20:59:42;3.92;;;2.83;;
62071;SDS011;48031;48.542;13.232;2024-02-15T21:03:44;3.80;;;2.90;;
62071;SDS011;48031;48.542;13.232;2024-02-15T21:07:50;7.32;;;2.55;;
62071;SDS011;48031;48.542;13.232;2024-02-15T21:11:52;5.82;;;1.95;;
62071;SDS011;48031;48.542;13.232;2024-02-15T21:15:55;6.70;;;2.72;;
62071;SDS011;48031;48.542;13.232;2024-02-15T21:19:57;4.43;;;2.53;;
62071;SDS011;48031;48.542;13.232;2024-02-15T21:23:58;3.58;;;2.42;;
62071;SDS011;48031;48.542;13.232;2024-02-15T21:28:00;2.60;;;2.30;;
62071;SDS011;48031;48.542;13.232;2024-02-15T21:32:02;5.75;;;3.08;;
62071;SDS011;48031;48.542;13.232;2024-02-15T21:36:04;4.95;;;2.20;;
62071;SDS011;48031;48.542;13.232;2024-02-15T21:40:06;2.83;;;2.33;;
62071;SDS011;48031;48.542;13.232;2024-02-15T21:44:09;3.85;;;2.17;;
62071;SDS011;48031;48.542;13.232;2024-02-15T21:48:16;5.97;;;3.87;;
62071;SDS011;48031;48.542;13.232;2024-02-15T21:52:18;3.88;;;2.92;;
62071;SDS011;48031;48.542;13.232;2024-02-15T21:56:19;6.53;;;3.05;;
62071;SDS011;48031;48.542;13.232;2024-02-15T22:00:21;6.90;;;4.13;;
62071;SDS011;48031;48.542;13.232;2024-02-15T22:04:23;5.57;;;3.67;;
62071;SDS011;48031;48.542;13.232;2024-02-15T22:08:25;4.43;;;2.97;;
62071;SDS011;48031;48.542;13.232;2024-02-15T22:12:27;5.45;;;3.55;;
62071;SDS011;48031;48.542;13.232;2024-02-15T22:16:29;5.93;;;4.10;;
62071;SDS011;48031;48.542;13.232;2024-02-15T22:20:32;7.50;;;3.28;;
62071;SDS011;48031;48.542;13.232;2024-02-15T22:24:33;5.85;;;4.25;;
62071;SDS011;48031;48.542;13.232;2024-02-15T22:28:35;4.80;;;3.80;;
62071;SDS011;48031;48.542;13.232;2024-02-15T22:32:37;6.65;;;3.95;;
62071;SDS011;48031;48.542;13.232;2024-02-15T22:36:39;5.20;;;3.47;;
62071;SDS011;48031;48.542;13.232;2024-02-15T22:40:41;7.38;;;2.40;;
62071;SDS011;48031;48.542;13.232;2024-02-15T22:44:45;5.72;;;3.35;;
62071;SDS011;48031;48.542;13.232;2024-02-15T22:48:47;3.97;;;2.90;;
62071;SDS011;48031;48.542;13.232;2024-02-15T22:52:49;4.15;;;2.90;;
62071;SDS011;48031;48.542;13.232;2024-02-15T22:56:52;4.53;;;2.95;;
62071;SDS011;48031;48.542;13.232;2024-02-15T23:00:54;4.95;;;3.03;;
62071;SDS011;48031;48.542;13.232;2024-02-15T23:04:56;3.25;;;2.78;;
62071;SDS011;48031;48.542;13.232;2024-02-15T23:09:01;5.20;;;3.38;;
62071;SDS011;48031;48.542;13.232;2024-02-15T23:13:03;5.75;;;3.38;;
62071;SDS011;48031;48.542;13.232;2024-02-15T23:17:05;6.93;;;2.72;;
62071;SDS011;48031;48.542;13.232;2024-02-15T23:21:07;5.13;;;3.25;;
62071;SDS011;48031;48.542;13.232;2024-02-15T23:25:10;2.97;;;2.45;;
62071;SDS011;48031;48.542;13.232;2024-02-15T23:29:12;4.13;;;3.00;;
62071;SDS011;48031;48.542;13.232;2024-02-15T23:33:16;4.00;;;2.78;;
62071;SDS011;48031;48.542;13.232;2024-02-15T23:37:21;4.53;;;3.35;;
62071;SDS011;48031;48.542;13.232;2024-02-15T23:41:46;3.60;;;2.53;;
62071;SDS011;48031;48.542;13.232;2024-02-15T23:45:47;2.95;;;2.38;;
62071;SDS011;48031;48.542;13.232;2024-02-15T23:49:49;2.58;;;1.77;;
62071;SDS011;48031;48.542;13.232;2024-02-15T23:53:51;4.88;;;2.75;;
62071;SDS011;48031;48.542;13.232;2024-02-15T23:57:54;3.58;;;3.20;;
